createdAt,value
2023-02-25T00:01:34.498Z,9.43
2023-02-25T00:04:01.163Z,10.83
2023-02-25T00:06:27.814Z,8.50
2023-02-25T00:08:54.653Z,7.03
2023-02-25T00:11:24.117Z,11.00
2023-02-25T00:13:51.057Z,9.07
2023-02-25T00:16:18.929Z,10.37
2023-02-25T00:18:46.626Z,11.33
2023-02-25T00:21:15.859Z,11.23
2023-02-25T00:23:47.955Z,9.10
2023-02-25T00:26:16.212Z,7.80
2023-02-25T00:28:43.459Z,11.27
2023-02-25T00:31:12.841Z,10.10
2023-02-25T00:33:41.941Z,9.90
2023-02-25T00:36:11.769Z,8.60
2023-02-25T00:38:38.421Z,9.80
2023-02-25T00:41:11.702Z,7.10
2023-02-25T00:43:44.067Z,9.20
2023-02-25T00:46:11.593Z,11.90
2023-02-25T00:48:38.741Z,6.63
2023-02-25T00:51:24.023Z,7.70
2023-02-25T00:53:52.262Z,11.10
2023-02-25T00:56:20.148Z,9.27
2023-02-25T00:58:49.018Z,7.83
2023-02-25T01:01:25.030Z,8.60
2023-02-25T01:03:53.142Z,7.03
2023-02-25T01:06:20.179Z,7.70
2023-02-25T01:08:47.098Z,7.70
2023-02-25T01:11:29.080Z,6.97
2023-02-25T01:14:01.534Z,7.20
2023-02-25T01:16:31.373Z,8.47
2023-02-25T01:19:01.078Z,7.23
2023-02-25T01:21:35.134Z,9.83
2023-02-25T01:24:07.981Z,5.47
2023-02-25T01:26:37.186Z,7.90
2023-02-25T01:29:09.248Z,7.90
2023-02-25T01:31:38.140Z,8.50
2023-02-25T01:34:07.415Z,9.30
2023-02-25T01:36:35.267Z,5.73
2023-02-25T01:39:03.423Z,5.37
2023-02-25T01:41:32.278Z,8.33
2023-02-25T01:44:14.266Z,5.33
2023-02-25T01:46:43.174Z,6.77
2023-02-25T01:49:16.594Z,4.63
2023-02-25T01:51:45.856Z,4.43
2023-02-25T01:54:13.533Z,7.03
2023-02-25T01:56:43.964Z,4.87
2023-02-25T01:59:11.003Z,4.23
2023-02-25T02:01:40.441Z,7.53
2023-02-25T02:04:10.558Z,5.37
2023-02-25T02:06:46.106Z,5.93
2023-02-25T02:09:15.179Z,7.17
2023-02-25T02:11:42.321Z,5.88
2023-02-25T02:14:13.106Z,5.00
2023-02-25T02:17:10.042Z,5.10
2023-02-25T02:19:49.551Z,7.30
2023-02-25T02:22:44.314Z,5.67
2023-02-25T02:25:10.834Z,6.77
2023-02-25T02:28:03.987Z,7.20
2023-02-25T02:30:57.638Z,8.80
2023-02-25T02:33:49.370Z,7.40
2023-02-25T02:36:31.416Z,5.67
2023-02-25T02:39:35.216Z,7.50
2023-02-25T02:42:14.490Z,5.27
2023-02-25T02:44:50.293Z,6.17
2023-02-25T02:47:34.683Z,8.37
2023-02-25T02:50:07.482Z,5.47
2023-02-25T02:52:39.664Z,6.78
2023-02-25T02:55:34.524Z,5.20
2023-02-25T02:58:07.797Z,5.67
2023-02-25T03:00:40.421Z,6.70
2023-02-25T03:03:20.364Z,7.03
2023-02-25T03:05:50.887Z,5.20
2023-02-25T03:08:26.575Z,5.77
2023-02-25T03:10:53.149Z,5.70
2023-02-25T03:13:19.858Z,5.57
2023-02-25T03:15:48.333Z,6.83
2023-02-25T03:18:34.225Z,9.83
2023-02-25T03:21:03.622Z,5.63
2023-02-25T03:23:33.378Z,5.57
2023-02-25T03:26:13.675Z,5.72
2023-02-25T03:28:45.405Z,6.30
2023-02-25T03:31:21.544Z,7.37
2023-02-25T03:33:54.660Z,7.03
2023-02-25T03:36:27.840Z,7.90
2023-02-25T03:38:59.252Z,6.17
2023-02-25T03:41:31.349Z,5.07
2023-02-25T03:43:59.725Z,4.43
2023-02-25T03:46:28.018Z,7.03
2023-02-25T03:48:56.042Z,6.07
2023-02-25T03:51:29.203Z,6.30
2023-02-25T03:53:56.398Z,4.57
2023-02-25T03:56:23.738Z,7.60
2023-02-25T03:58:50.599Z,10.67
2023-02-25T04:01:24.822Z,8.43
2023-02-25T04:03:51.552Z,5.33
2023-02-25T04:06:24.955Z,4.33
2023-02-25T04:08:52.101Z,5.43
2023-02-25T04:11:18.950Z,7.33
2023-02-25T04:13:45.565Z,4.47
2023-02-25T04:16:12.252Z,4.90
2023-02-25T04:18:38.849Z,4.60
2023-02-25T04:21:06.948Z,4.23
2023-02-25T04:23:35.493Z,5.43
2023-02-25T04:26:02.502Z,8.70
2023-02-25T04:28:29.368Z,6.43
2023-02-25T04:30:56.059Z,3.43
2023-02-25T04:33:22.838Z,4.23
2023-02-25T04:35:50.824Z,5.90
2023-02-25T04:38:17.376Z,4.03
2023-02-25T04:40:43.947Z,4.60
2023-02-25T04:43:10.518Z,3.47
2023-02-25T04:45:37.057Z,6.00
2023-02-25T04:48:03.881Z,3.27
2023-02-25T04:50:30.428Z,5.13
2023-02-25T04:53:00.194Z,6.20
2023-02-25T04:55:26.814Z,6.27
2023-02-25T04:57:53.378Z,4.03
2023-02-25T05:00:24.094Z,4.20
2023-02-25T05:02:51.408Z,5.30
2023-02-25T05:05:18.175Z,4.40
2023-02-25T05:07:45.009Z,4.27
2023-02-25T05:10:13.188Z,4.90
2023-02-25T05:12:39.937Z,4.70
2023-02-25T05:15:08.487Z,4.23
2023-02-25T05:17:36.062Z,2.67
2023-02-25T05:20:06.573Z,6.28
2023-02-25T05:22:33.366Z,3.87
2023-02-25T05:24:59.948Z,5.63
2023-02-25T05:27:26.518Z,3.20
2023-02-25T05:29:54.628Z,3.20
2023-02-25T05:32:21.496Z,6.60
2023-02-25T05:34:48.166Z,6.97
2023-02-25T05:37:14.965Z,10.07
2023-02-25T05:39:41.590Z,5.73
2023-02-25T05:42:08.183Z,5.97
2023-02-25T05:44:34.846Z,5.73
2023-02-25T05:47:01.817Z,5.03
2023-02-25T05:49:28.457Z,5.60
2023-02-25T05:51:55.147Z,3.70
2023-02-25T05:54:21.701Z,3.20
2023-02-25T05:56:52.006Z,3.77
2023-02-25T05:59:19.484Z,6.17
2023-02-25T06:01:46.150Z,8.47
2023-02-25T06:04:12.794Z,6.83
2023-02-25T06:06:39.438Z,3.63
2023-02-25T06:09:06.009Z,4.27
2023-02-25T06:11:33.000Z,7.90
2023-02-25T06:14:00.120Z,8.00
2023-02-25T06:16:32.046Z,10.07
2023-02-25T06:19:01.038Z,5.27
2023-02-25T06:21:27.862Z,7.47
2023-02-25T06:23:54.805Z,3.10
2023-02-25T06:26:22.454Z,5.80
2023-02-25T06:28:49.258Z,6.20
2023-02-25T06:31:17.946Z,5.03
2023-02-25T06:33:46.579Z,4.20
2023-02-25T06:36:13.627Z,5.33
2023-02-25T06:38:40.452Z,2.63
2023-02-25T06:41:19.841Z,4.70
2023-02-25T06:43:51.830Z,5.93
2023-02-25T06:46:25.826Z,7.43
2023-02-25T06:48:52.974Z,3.80
2023-02-25T06:51:19.634Z,3.43
2023-02-25T06:53:47.676Z,5.20
2023-02-25T06:56:15.781Z,6.10
2023-02-25T06:58:42.936Z,3.30
2023-02-25T07:01:11.881Z,5.53
2023-02-25T07:03:38.505Z,5.67
2023-02-25T07:06:05.815Z,4.20
2023-02-25T07:08:32.892Z,4.13
2023-02-25T07:11:26.935Z,3.33
2023-02-25T07:13:53.566Z,4.17
2023-02-25T07:16:20.879Z,3.90
2023-02-25T07:18:48.145Z,3.67
2023-02-25T07:21:15.840Z,2.87
2023-02-25T07:23:42.590Z,4.10
2023-02-25T07:26:12.244Z,4.40
2023-02-25T07:28:39.672Z,3.70
2023-02-25T07:31:15.864Z,4.37
2023-02-25T07:33:43.146Z,5.53
2023-02-25T07:36:11.407Z,5.10
2023-02-25T07:38:38.910Z,3.00
2023-02-25T07:41:06.156Z,5.27
2023-02-25T07:43:32.807Z,3.93
2023-02-25T07:45:59.917Z,4.27
2023-02-25T07:48:26.908Z,5.55
2023-02-25T07:50:53.573Z,2.93
2023-02-25T07:53:22.466Z,4.03
2023-02-25T07:55:50.398Z,7.83
2023-02-25T07:58:17.019Z,3.63
2023-02-25T08:00:45.662Z,5.47
2023-02-25T08:03:12.419Z,10.60
2023-02-25T08:05:39.034Z,4.43
2023-02-25T08:08:05.965Z,5.77
2023-02-25T08:10:32.776Z,3.20
2023-02-25T08:12:59.402Z,5.27
2023-02-25T08:15:26.019Z,5.20
2023-02-25T08:17:53.058Z,6.90
2023-02-25T08:20:19.730Z,3.87
2023-02-25T08:22:46.317Z,6.13
2023-02-25T08:25:13.025Z,2.07
2023-02-25T08:27:39.875Z,6.67
2023-02-25T08:30:08.542Z,8.63
2023-02-25T08:32:39.383Z,5.10
2023-02-25T08:35:06.319Z,4.73
2023-02-25T08:37:33.495Z,6.13
2023-02-25T08:40:00.098Z,4.03
2023-02-25T08:42:27.206Z,3.13
2023-02-25T08:44:53.831Z,8.17
2023-02-25T08:47:20.454Z,5.30
2023-02-25T08:49:47.568Z,3.20
2023-02-25T08:52:14.723Z,6.63
2023-02-25T08:54:41.462Z,6.70
2023-02-25T08:57:08.311Z,7.07
2023-02-25T08:59:37.586Z,4.50
2023-02-25T09:02:06.261Z,5.93
2023-02-25T09:04:34.065Z,5.57
2023-02-25T09:07:01.681Z,4.40
2023-02-25T09:09:28.712Z,6.80
2023-02-25T09:11:55.797Z,3.77
2023-02-25T09:14:23.173Z,9.07
2023-02-25T09:16:50.266Z,4.73
2023-02-25T09:19:18.315Z,2.30
2023-02-25T09:21:48.072Z,3.47
2023-02-25T09:24:15.536Z,3.47
2023-02-25T09:26:42.599Z,3.37
2023-02-25T09:29:10.096Z,6.60
2023-02-25T09:31:37.881Z,4.70
2023-02-25T09:34:06.503Z,3.83
2023-02-25T09:36:33.661Z,2.23
2023-02-25T09:39:00.956Z,2.87
2023-02-25T09:41:34.880Z,4.33
2023-02-25T09:44:08.383Z,4.10
2023-02-25T09:46:37.197Z,2.07
2023-02-25T09:49:09.898Z,3.57
2023-02-25T09:51:38.955Z,1.40
2023-02-25T09:54:09.270Z,1.90
2023-02-25T09:56:36.520Z,6.83
2023-02-25T09:59:04.306Z,3.97
2023-02-25T10:01:35.349Z,3.73
2023-02-25T10:04:02.374Z,3.20
2023-02-25T10:06:47.704Z,1.73
2023-02-25T10:09:14.665Z,6.00
2023-02-25T10:11:45.703Z,3.47
2023-02-25T10:14:18.939Z,3.93
2023-02-25T10:17:03.569Z,2.57
2023-02-25T10:19:49.643Z,1.60
2023-02-25T10:22:17.140Z,4.83
2023-02-25T10:24:46.711Z,4.10
2023-02-25T10:27:31.130Z,2.93
2023-02-25T10:30:15.792Z,3.10
2023-02-25T10:32:45.276Z,2.77
2023-02-25T10:35:25.736Z,3.17
2023-02-25T10:37:52.793Z,3.37
2023-02-25T10:40:21.455Z,3.03
2023-02-25T10:42:49.782Z,2.17
2023-02-25T10:45:25.497Z,1.70
2023-02-25T10:47:56.498Z,3.17
2023-02-25T10:50:38.948Z,3.57
2023-02-25T10:53:14.525Z,3.13
2023-02-25T10:55:47.095Z,2.37
2023-02-25T10:58:22.633Z,4.30
2023-02-25T11:00:56.215Z,2.47
2023-02-25T11:03:24.690Z,2.37
2023-02-25T11:05:51.400Z,3.17
2023-02-25T11:08:31.585Z,2.47
2023-02-25T11:11:20.054Z,2.83
2023-02-25T11:14:05.115Z,4.30
2023-02-25T11:16:37.782Z,3.27
2023-02-25T11:19:25.360Z,7.57
2023-02-25T11:21:52.935Z,8.00
2023-02-25T11:24:39.838Z,4.20
2023-02-25T11:27:07.807Z,3.03
2023-02-25T11:29:42.620Z,4.03
2023-02-25T11:32:19.375Z,2.83
2023-02-25T11:34:50.314Z,1.50
2023-02-25T11:40:01.569Z,2.57
2023-02-25T11:42:30.219Z,3.63
2023-02-25T11:45:01.671Z,7.27
2023-02-25T11:47:34.062Z,5.20
2023-02-25T11:50:25.922Z,1.93
2023-02-25T11:53:37.269Z,2.30
2023-02-25T11:56:21.185Z,3.47
2023-02-25T11:59:13.411Z,3.17
2023-02-25T12:02:11.738Z,4.83
2023-02-25T12:05:06.314Z,2.03
2023-02-25T12:08:14.311Z,3.23
2023-02-25T12:11:09.608Z,6.13
2023-02-25T12:13:50.991Z,6.90
2023-02-25T12:16:36.661Z,5.60
2023-02-25T12:19:33.804Z,3.33
2023-02-25T12:22:14.667Z,3.57
2023-02-25T12:25:12.190Z,5.37
2023-02-25T12:27:53.711Z,4.13
2023-02-25T12:31:01.271Z,5.23
2023-02-25T12:33:46.861Z,6.03
2023-02-25T12:36:19.254Z,5.13
2023-02-25T12:39:08.641Z,5.63
2023-02-25T12:41:40.784Z,4.67
2023-02-25T12:44:36.532Z,2.17
2023-02-25T12:47:21.952Z,3.50
2023-02-25T12:49:54.807Z,5.07
2023-02-25T12:52:59.231Z,5.07
2023-02-25T12:55:49.720Z,4.17
2023-02-25T12:58:42.828Z,4.77
2023-02-25T13:01:32.609Z,3.60
2023-02-25T13:04:20.876Z,7.00
2023-02-25T13:07:01.926Z,6.47
2023-02-25T13:09:55.494Z,7.17
2023-02-25T13:12:41.429Z,8.50
2023-02-25T13:15:20.762Z,3.97
2023-02-25T13:17:54.756Z,6.47
2023-02-25T13:20:44.305Z,6.37
2023-02-25T13:23:29.808Z,4.87
2023-02-25T13:26:25.235Z,4.17
2023-02-25T13:29:15.424Z,5.53
2023-02-25T13:32:13.187Z,5.43
2023-02-25T13:34:48.967Z,2.83
2023-02-25T13:37:28.091Z,3.37
2023-02-25T13:40:27.194Z,5.57
2023-02-25T13:43:06.112Z,4.17
2023-02-25T13:45:43.910Z,6.30
2023-02-25T13:48:32.291Z,4.67
2023-02-25T13:51:21.777Z,4.53
2023-02-25T13:54:03.577Z,5.33
2023-02-25T13:57:03.254Z,5.77
2023-02-25T13:59:38.484Z,5.37
2023-02-25T14:02:26.280Z,6.00
2023-02-25T14:05:11.819Z,4.57
2023-02-25T14:08:00.837Z,5.10
2023-02-25T14:11:11.144Z,2.87
2023-02-25T14:13:53.074Z,5.93
2023-02-25T14:17:00.098Z,6.53
2023-02-25T14:20:00.950Z,5.43
2023-02-25T14:22:36.923Z,7.87
2023-02-25T14:25:14.242Z,4.20
2023-02-25T14:28:00.090Z,4.47
2023-02-25T14:30:46.219Z,3.93
2023-02-25T14:33:31.057Z,5.23
2023-02-25T14:36:28.594Z,5.33
2023-02-25T14:39:14.006Z,4.77
2023-02-25T14:42:21.951Z,8.57
2023-02-25T14:45:00.888Z,5.57
2023-02-25T14:47:33.988Z,5.33
2023-02-25T14:50:17.472Z,8.03
2023-02-25T14:52:55.864Z,6.57
2023-02-25T14:56:19.556Z,6.07
2023-02-25T14:59:01.105Z,4.47
2023-02-25T15:01:49.567Z,6.80
2023-02-25T15:04:35.515Z,5.30
2023-02-25T15:07:33.717Z,5.23
2023-02-25T15:10:17.330Z,6.63
2023-02-25T15:13:04.581Z,5.27
2023-02-25T15:16:08.609Z,3.07
2023-02-25T15:19:06.308Z,6.53
2023-02-25T15:21:44.910Z,6.35
2023-02-25T15:24:41.357Z,4.20
2023-02-25T15:27:33.122Z,5.27
2023-02-25T15:30:09.269Z,5.27
2023-02-25T15:33:06.901Z,7.67
2023-02-25T15:35:36.335Z,3.67
2023-02-25T15:38:08.139Z,5.73
2023-02-25T15:40:34.664Z,6.67
2023-02-25T15:43:26.332Z,4.57
2023-02-25T15:46:13.808Z,6.87
2023-02-25T15:48:42.464Z,4.10
2023-02-25T15:51:30.745Z,5.97
2023-02-25T15:53:57.615Z,6.03
2023-02-25T15:56:29.494Z,4.73
2023-02-25T15:58:59.991Z,4.83
2023-02-25T16:01:39.721Z,4.73
2023-02-25T16:04:44.508Z,4.93
2023-02-25T16:07:15.866Z,6.83
2023-02-25T16:09:51.007Z,9.83
2023-02-25T16:12:18.297Z,5.83
2023-02-25T16:14:45.332Z,5.60
2023-02-25T16:17:26.081Z,7.17
2023-02-25T16:20:18.276Z,7.70
2023-02-25T16:22:47.091Z,6.40
2023-02-25T16:25:18.594Z,5.30
2023-02-25T16:27:55.159Z,7.17
2023-02-25T16:30:30.661Z,7.03
2023-02-25T16:33:29.495Z,7.73
2023-02-25T16:36:13.374Z,6.00
2023-02-25T16:38:55.765Z,4.83
2023-02-25T16:41:30.259Z,12.23
2023-02-25T16:44:03.536Z,14.93
2023-02-25T16:46:35.823Z,15.63
2023-02-25T16:49:08.664Z,12.23
2023-02-25T16:51:42.217Z,12.97
2023-02-25T16:54:11.730Z,17.83
2023-02-25T16:56:40.492Z,19.27
2023-02-25T16:59:18.324Z,16.87
2023-02-25T17:01:53.716Z,20.30
2023-02-25T17:04:38.312Z,22.77
2023-02-25T17:07:23.034Z,24.20
2023-02-25T17:10:01.955Z,14.70
2023-02-25T17:12:47.487Z,13.77
2023-02-25T17:15:17.222Z,16.03
2023-02-25T17:17:45.475Z,17.20
2023-02-25T17:20:20.079Z,8.33
2023-02-25T17:22:46.838Z,8.73
2023-02-25T17:25:15.923Z,16.35
2023-02-25T17:27:45.389Z,17.03
2023-02-25T17:30:46.148Z,10.87
2023-02-25T17:33:31.837Z,5.13
2023-02-25T17:36:08.765Z,5.10
2023-02-25T17:38:37.050Z,6.37
2023-02-25T17:41:05.715Z,2.53
2023-02-25T17:43:39.229Z,4.33
2023-02-25T17:46:37.967Z,4.87
2023-02-25T17:49:32.263Z,3.70
2023-02-25T17:52:02.191Z,5.07
2023-02-25T17:54:32.652Z,5.40
2023-02-25T17:57:14.575Z,3.23
2023-02-25T17:59:43.339Z,4.90
2023-02-25T18:02:29.008Z,5.70
2023-02-25T18:05:22.060Z,4.83
2023-02-25T18:07:57.776Z,3.27
2023-02-25T18:10:27.490Z,5.43
2023-02-25T18:13:01.501Z,7.67
2023-02-25T18:15:31.615Z,6.13
2023-02-25T18:18:01.365Z,6.63
2023-02-25T18:20:31.883Z,5.50
2023-02-25T18:23:18.511Z,6.03
2023-02-25T18:26:09.077Z,9.47
2023-02-25T18:28:35.871Z,5.47
2023-02-25T18:31:02.554Z,6.33
2023-02-25T18:33:29.143Z,7.47
2023-02-25T18:35:57.359Z,4.83
2023-02-25T18:38:25.994Z,4.63
2023-02-25T18:40:54.171Z,6.40
2023-02-25T18:43:24.175Z,5.50
2023-02-25T18:45:51.056Z,4.57
2023-02-25T18:48:17.743Z,6.77
2023-02-25T18:50:44.607Z,5.50
2023-02-25T18:53:23.660Z,7.03
2023-02-25T18:55:52.036Z,6.77
2023-02-25T18:58:21.212Z,5.37
2023-02-25T19:00:52.029Z,7.13
2023-02-25T19:03:27.804Z,6.23
2023-02-25T19:05:54.455Z,7.03
2023-02-25T19:08:21.176Z,11.57
2023-02-25T19:10:47.938Z,6.87
2023-02-25T19:13:28.879Z,6.30
2023-02-25T19:15:55.610Z,9.17
2023-02-25T19:18:22.413Z,7.43
2023-02-25T19:20:49.027Z,8.68
2023-02-25T19:23:18.026Z,7.27
2023-02-25T19:25:46.258Z,7.63
2023-02-25T19:28:13.204Z,7.17
2023-02-25T19:30:43.011Z,5.87
2023-02-25T19:33:11.388Z,6.90
2023-02-25T19:35:40.761Z,6.83
2023-02-25T19:38:11.113Z,5.90
2023-02-25T19:40:38.230Z,10.50
2023-02-25T19:43:04.864Z,5.60
2023-02-25T19:45:32.417Z,7.73
2023-02-25T19:47:59.758Z,5.97
2023-02-25T19:50:27.118Z,7.03
2023-02-25T19:52:54.354Z,7.50
2023-02-25T19:55:21.489Z,9.32
2023-02-25T19:57:48.138Z,10.20
2023-02-25T20:00:17.877Z,6.50
2023-02-25T20:02:44.689Z,7.67
2023-02-25T20:05:12.727Z,9.00
2023-02-25T20:07:39.590Z,6.03
2023-02-25T20:10:10.803Z,9.50
2023-02-25T20:12:38.155Z,6.17
2023-02-25T20:15:06.812Z,7.67
2023-02-25T20:17:39.353Z,12.53
2023-02-25T20:20:08.261Z,7.50
2023-02-25T20:22:35.715Z,10.67
2023-02-25T20:25:03.026Z,9.03
2023-02-25T20:27:29.619Z,9.30
2023-02-25T20:29:56.229Z,10.43
2023-02-25T20:32:22.850Z,8.67
2023-02-25T20:34:49.591Z,9.07
2023-02-25T20:37:21.359Z,12.03
2023-02-25T20:39:51.715Z,8.60
2023-02-25T20:42:20.795Z,9.53
2023-02-25T20:44:51.211Z,7.40
2023-02-25T20:47:27.126Z,8.70
2023-02-25T20:49:55.292Z,9.20
2023-02-25T20:52:22.705Z,13.30
2023-02-25T20:54:49.899Z,26.10
2023-02-25T20:57:19.912Z,7.90
2023-02-25T20:59:48.147Z,7.57
2023-02-25T21:02:15.774Z,7.40
2023-02-25T21:04:43.776Z,8.00
2023-02-25T21:07:10.822Z,6.13
2023-02-25T21:09:37.398Z,9.10
2023-02-25T21:12:04.385Z,11.10
2023-02-25T21:14:30.999Z,5.90
2023-02-25T21:16:57.622Z,7.30
2023-02-25T21:19:26.339Z,9.60
2023-02-25T21:21:52.958Z,6.30
2023-02-25T21:24:20.471Z,9.23
2023-02-25T21:26:47.321Z,9.50
2023-02-25T21:29:14.788Z,16.33
2023-02-25T21:31:41.993Z,8.83
2023-02-25T21:34:11.646Z,17.90
2023-02-25T21:36:38.845Z,4.57
2023-02-25T21:39:06.866Z,6.77
2023-02-25T21:41:33.555Z,7.30
2023-02-25T21:44:00.158Z,10.23
2023-02-25T21:46:27.285Z,5.80
2023-02-25T21:48:55.737Z,3.80
2023-02-25T21:51:25.089Z,4.60
2023-02-25T21:53:56.521Z,5.57
2023-02-25T21:56:24.755Z,5.30
2023-02-25T21:58:55.715Z,4.47
2023-02-25T22:01:34.458Z,4.00
2023-02-25T22:04:01.283Z,5.50
2023-02-25T22:06:28.602Z,3.27
2023-02-25T22:08:55.823Z,3.90
2023-02-25T22:11:28.321Z,6.00
2023-02-25T22:13:55.570Z,4.60
2023-02-25T22:16:23.594Z,4.17
2023-02-25T22:18:51.203Z,2.93
2023-02-25T22:21:26.849Z,2.50
2023-02-25T22:23:55.726Z,8.48
2023-02-25T22:26:25.451Z,4.50
2023-02-25T22:29:04.981Z,6.37
2023-02-25T22:31:32.807Z,7.53
2023-02-25T22:33:59.959Z,4.63
2023-02-25T22:36:27.130Z,5.97
2023-02-25T22:38:54.008Z,4.03
2023-02-25T22:41:23.829Z,5.50
2023-02-25T22:43:51.398Z,4.07
2023-02-25T22:46:24.171Z,7.37
2023-02-25T22:48:52.169Z,4.00
2023-02-25T22:51:34.799Z,5.17
2023-02-25T22:54:01.981Z,5.10
2023-02-25T22:56:28.666Z,5.87
2023-02-25T22:58:55.394Z,4.37
2023-02-25T23:01:23.978Z,7.63
2023-02-25T23:03:51.868Z,6.07
2023-02-25T23:06:20.271Z,5.90
2023-02-25T23:08:48.054Z,9.47
2023-02-25T23:11:20.779Z,5.60
2023-02-25T23:13:50.012Z,4.23
2023-02-25T23:16:17.633Z,5.33
2023-02-25T23:18:45.524Z,6.27
2023-02-25T23:21:18.779Z,3.40
2023-02-25T23:23:52.495Z,2.50
2023-02-25T23:26:33.418Z,4.97
2023-02-25T23:29:02.745Z,3.13
2023-02-25T23:31:35.027Z,3.40
2023-02-25T23:34:05.243Z,4.07
2023-02-25T23:36:31.918Z,7.53
2023-02-25T23:39:01.008Z,3.00
2023-02-25T23:41:29.118Z,3.60
2023-02-25T23:43:57.988Z,5.60
2023-02-25T23:46:27.270Z,4.83
2023-02-25T23:48:55.788Z,5.10
2023-02-25T23:51:22.619Z,4.57
2023-02-25T23:53:52.975Z,4.63
2023-02-25T23:56:19.701Z,5.37
2023-02-25T23:58:50.026Z,4.73
